TVF69FP LFPO-LGMK
Flight info
| Callsign | TVF69FP |
|---|---|
| Flight time | 2h 52m |
| Altitude | 23000 |
| Route | BUBLI DCT LUVAL/N0463F330 DCT SHARA DCT DEVDI DCT RIPUS DCT RESIA DCT ROTAR DCT MINTU DCT KOFER DCT PINDO DCT SKP UN137 AGAPU |
| Aircraft | B738/M-SDE2E3FGHIRWXY/LB1 |
Departure
| Time | 2026-05-06 11:54 |
|---|---|
| Airport | Paris-Orly Airport (LFPO) |
Arrival
| Time | 2026-05-06 14:46 |
|---|---|
| Airport | Mykonos Island National Airport (LGMK) |
| Time | Latitude | Longitude | Altitude | Speed | Heading |
|---|---|---|---|---|---|
| 2026-05-06 11:45 | 48.72588 | 2.36249 | 290 ft | 0 kts | 348° |
| 2026-05-06 11:46 | 48.72572 | 2.36256 | 296 ft | 4 kts | 314° |
| 2026-05-06 11:47 | 48.72559 | 2.36287 | 293 ft | 4 kts | 321° |
| 2026-05-06 11:47 | 48.72540 | 2.36299 | 293 ft | 4 kts | 0° |
| 2026-05-06 11:47 | 48.72519 | 2.36287 | 294 ft | 4 kts | 58° |
| 2026-05-06 11:47 | 48.72510 | 2.36252 | 293 ft | 4 kts | 75° |
| 2026-05-06 11:48 | 48.72503 | 2.36213 | 297 ft | 4 kts | 74° |
| 2026-05-06 11:48 | 48.72496 | 2.36173 | 293 ft | 4 kts | 74° |
| 2026-05-06 11:48 | 48.72492 | 2.36156 | 295 ft | 0 kts | 74° |
| 2026-05-06 11:50 | 48.72493 | 2.36156 | 295 ft | 0 kts | 74° |
| 2026-05-06 11:50 | 48.72494 | 2.36165 | 295 ft | 3 kts | 74° |
| 2026-05-06 11:50 | 48.72486 | 2.36219 | 293 ft | 7 kts | 146° |
| 2026-05-06 11:50 | 48.72442 | 2.36242 | 294 ft | 7 kts | 164° |
| 2026-05-06 11:51 | 48.72397 | 2.36260 | 295 ft | 7 kts | 167° |
| 2026-05-06 11:51 | 48.72354 | 2.36277 | 292 ft | 6 kts | 165° |
| 2026-05-06 11:51 | 48.72311 | 2.36305 | 295 ft | 7 kts | 148° |
| 2026-05-06 11:51 | 48.72271 | 2.36358 | 292 ft | 8 kts | 131° |
| 2026-05-06 11:52 | 48.72235 | 2.36433 | 293 ft | 9 kts | 119° |
| 2026-05-06 11:52 | 48.72196 | 2.36517 | 291 ft | 10 kts | 141° |
| 2026-05-06 11:52 | 48.72131 | 2.36554 | 294 ft | 10 kts | 163° |
| 2026-05-06 11:52 | 48.72083 | 2.36613 | 295 ft | 10 kts | 90° |
| 2026-05-06 11:53 | 48.72109 | 2.36766 | 292 ft | 34 kts | 74° |
| 2026-05-06 11:53 | 48.72242 | 2.37480 | 291 ft | 102 kts | 73° |
| 2026-05-06 11:53 | 48.72476 | 2.38764 | 295 ft | 149 kts | 73° |
| 2026-05-06 11:53 | 48.72777 | 2.40453 | 431 ft | 175 kts | 77° |
| 2026-05-06 11:54 | 48.73012 | 2.42231 | 1038 ft | 175 kts | 73° |
| 2026-05-06 11:54 | 48.73293 | 2.44100 | 1489 ft | 188 kts | 71° |
| 2026-05-06 11:54 | 48.73671 | 2.46022 | 2029 ft | 194 kts | 68° |
| 2026-05-06 11:54 | 48.74040 | 2.48122 | 2239 ft | 219 kts | 79° |
| 2026-05-06 11:55 | 48.74132 | 2.50513 | 2585 ft | 232 kts | 84° |
| 2026-05-06 11:55 | 48.74224 | 2.52984 | 3030 ft | 232 kts | 82° |
| 2026-05-06 11:55 | 48.74326 | 2.55507 | 3230 ft | 250 kts | 83° |
| 2026-05-06 11:55 | 48.74514 | 2.58183 | 3696 ft | 260 kts | 79° |
| 2026-05-06 11:56 | 48.74746 | 2.60901 | 4469 ft | 261 kts | 79° |
| 2026-05-06 11:56 | 48.74976 | 2.63635 | 5223 ft | 264 kts | 79° |
| 2026-05-06 11:56 | 48.75206 | 2.66425 | 5895 ft | 268 kts | 80° |
| 2026-05-06 11:56 | 48.75433 | 2.69232 | 6636 ft | 270 kts | 80° |
| 2026-05-06 11:57 | 48.75658 | 2.72094 | 7229 ft | 276 kts | 81° |
| 2026-05-06 11:57 | 48.75881 | 2.75000 | 7848 ft | 280 kts | 81° |
| 2026-05-06 11:57 | 48.76111 | 2.77967 | 8362 ft | 286 kts | 81° |
| 2026-05-06 11:57 | 48.76340 | 2.80987 | 8924 ft | 289 kts | 82° |
| 2026-05-06 11:58 | 48.76572 | 2.84067 | 8886 ft | 296 kts | 83° |
| 2026-05-06 11:58 | 48.76807 | 2.87160 | 8892 ft | 294 kts | 82° |
| 2026-05-06 11:58 | 48.77036 | 2.90184 | 9003 ft | 291 kts | 82° |
| 2026-05-06 11:58 | 48.77266 | 2.93229 | 9493 ft | 295 kts | 83° |
| 2026-05-06 11:59 | 48.77503 | 2.96369 | 10006 ft | 304 kts | 83° |
| 2026-05-06 11:59 | 48.77781 | 2.99608 | 10380 ft | 319 kts | 80° |
| 2026-05-06 11:59 | 48.78179 | 3.03037 | 10566 ft | 340 kts | 79° |
| 2026-05-06 11:59 | 48.78629 | 3.06644 | 10825 ft | 357 kts | 78° |
| 2026-05-06 12:00 | 48.79096 | 3.10391 | 11367 ft | 365 kts | 79° |
| 2026-05-06 12:00 | 48.79559 | 3.14180 | 12081 ft | 366 kts | 79° |
| 2026-05-06 12:00 | 48.80018 | 3.17993 | 12759 ft | 368 kts | 79° |
| 2026-05-06 12:00 | 48.80473 | 3.21821 | 13535 ft | 369 kts | 78° |
| 2026-05-06 12:01 | 48.80929 | 3.25677 | 14114 ft | 373 kts | 78° |
| 2026-05-06 12:01 | 48.81387 | 3.29566 | 14645 ft | 377 kts | 79° |
| 2026-05-06 12:01 | 48.81848 | 3.33512 | 15137 ft | 383 kts | 79° |
| 2026-05-06 12:01 | 48.82272 | 3.37525 | 15643 ft | 388 kts | 86° |
| 2026-05-06 12:02 | 48.82185 | 3.41613 | 16238 ft | 389 kts | 96° |
| 2026-05-06 12:02 | 48.81905 | 3.45694 | 16798 ft | 390 kts | 97° |
| 2026-05-06 12:02 | 48.81595 | 3.49805 | 17254 ft | 394 kts | 97° |
| 2026-05-06 12:02 | 48.81290 | 3.53930 | 17860 ft | 393 kts | 97° |
| 2026-05-06 12:03 | 48.80999 | 3.58060 | 18395 ft | 396 kts | 97° |
| 2026-05-06 12:03 | 48.80713 | 3.62256 | 18751 ft | 403 kts | 97° |
| 2026-05-06 12:03 | 48.80438 | 3.66438 | 19296 ft | 403 kts | 96° |
| 2026-05-06 12:03 | 48.80162 | 3.70675 | 19767 ft | 405 kts | 97° |
| 2026-05-06 12:04 | 48.79885 | 3.74947 | 20091 ft | 410 kts | 97° |
| 2026-05-06 12:04 | 48.79604 | 3.79252 | 20503 ft | 412 kts | 97° |
| 2026-05-06 12:04 | 48.79317 | 3.83597 | 20921 ft | 416 kts | 97° |
| 2026-05-06 12:04 | 48.79024 | 3.87973 | 21368 ft | 418 kts | 96° |
| 2026-05-06 12:05 | 48.78730 | 3.92379 | 21872 ft | 419 kts | 97° |
| 2026-05-06 12:05 | 48.78434 | 3.96801 | 22261 ft | 424 kts | 97° |
| 2026-05-06 12:05 | 48.78132 | 4.01286 | 22593 ft | 429 kts | 97° |
| 2026-05-06 12:05 | 48.77831 | 4.05771 | 23208 ft | 427 kts | 97° |
| 2026-05-06 12:06 | 48.77524 | 4.10275 | 23561 ft | 431 kts | 97° |
| 2026-05-06 12:06 | 48.76993 | 4.14742 | 23813 ft | 433 kts | 111° |
| 2026-05-06 12:06 | 48.75601 | 4.18754 | 24221 ft | 429 kts | 126° |
| 2026-05-06 12:06 | 48.73892 | 4.22382 | 24634 ft | 429 kts | 127° |
| 2026-05-06 12:07 | 48.72125 | 4.26055 | 24907 ft | 433 kts | 128° |
| 2026-05-06 12:07 | 48.70344 | 4.29748 | 25212 ft | 436 kts | 128° |
| 2026-05-06 12:07 | 48.68559 | 4.33472 | 25554 ft | 437 kts | 127° |
| 2026-05-06 12:07 | 48.66781 | 4.37203 | 25996 ft | 436 kts | 127° |
| 2026-05-06 12:08 | 48.65016 | 4.40926 | 26396 ft | 436 kts | 127° |
| 2026-05-06 12:08 | 48.63251 | 4.44656 | 26694 ft | 438 kts | 127° |
| 2026-05-06 12:08 | 48.61469 | 4.48424 | 26976 ft | 440 kts | 127° |
| 2026-05-06 12:08 | 48.59684 | 4.52197 | 27289 ft | 442 kts | 127° |
| 2026-05-06 12:09 | 48.57897 | 4.55969 | 27676 ft | 443 kts | 127° |
| 2026-05-06 12:09 | 48.56097 | 4.59762 | 28001 ft | 446 kts | 127° |
| 2026-05-06 12:09 | 48.54302 | 4.63543 | 28776 ft | 437 kts | 128° |
| 2026-05-06 12:09 | 48.52545 | 4.67238 | 29558 ft | 430 kts | 128° |
| 2026-05-06 12:10 | 48.50801 | 4.70895 | 30050 ft | 429 kts | 128° |
| 2026-05-06 12:10 | 48.49055 | 4.74552 | 30327 ft | 431 kts | 128° |
| 2026-05-06 12:10 | 48.47301 | 4.78221 | 30518 ft | 433 kts | 128° |
| 2026-05-06 12:10 | 48.45538 | 4.81902 | 30795 ft | 433 kts | 128° |
| 2026-05-06 12:11 | 48.43774 | 4.85583 | 31104 ft | 432 kts | 128° |
| 2026-05-06 12:11 | 48.42016 | 4.89248 | 31365 ft | 432 kts | 128° |
| 2026-05-06 12:11 | 48.40273 | 4.92875 | 31602 ft | 433 kts | 128° |
| 2026-05-06 12:11 | 48.38511 | 4.96536 | 31874 ft | 433 kts | 128° |
| 2026-05-06 12:12 | 48.36743 | 5.00207 | 32184 ft | 432 kts | 128° |
| 2026-05-06 12:12 | 48.34978 | 5.03868 | 32480 ft | 433 kts | 128° |
| 2026-05-06 12:12 | 48.33212 | 5.07524 | 32759 ft | 433 kts | 128° |
| 2026-05-06 12:12 | 48.31436 | 5.11194 | 32850 ft | 436 kts | 128° |
| 2026-05-06 12:13 | 48.28527 | 5.19239 | 32839 ft | 442 kts | 110° |
| 2026-05-06 12:13 | 48.26766 | 5.28078 | 32853 ft | 440 kts | 108° |
| 2026-05-06 12:14 | 48.25058 | 5.36854 | 32850 ft | 437 kts | 109° |
| 2026-05-06 12:14 | 48.23324 | 5.45555 | 32847 ft | 434 kts | 109° |
| 2026-05-06 12:15 | 48.21571 | 5.54210 | 32837 ft | 433 kts | 109° |
| 2026-05-06 12:15 | 48.19811 | 5.62828 | 32846 ft | 431 kts | 109° |
| 2026-05-06 12:16 | 48.18047 | 5.71429 | 32845 ft | 432 kts | 110° |
| 2026-05-06 12:16 | 48.16288 | 5.79972 | 32835 ft | 431 kts | 110° |
| 2026-05-06 12:17 | 48.14519 | 5.88533 | 32853 ft | 429 kts | 110° |
| 2026-05-06 12:17 | 48.12745 | 5.97080 | 32847 ft | 431 kts | 110° |
| 2026-05-06 12:18 | 48.10965 | 6.05619 | 32831 ft | 429 kts | 110° |
| 2026-05-06 12:18 | 48.09184 | 6.14129 | 32852 ft | 427 kts | 110° |
| 2026-05-06 12:19 | 48.07406 | 6.22588 | 32848 ft | 426 kts | 110° |
| 2026-05-06 12:19 | 48.05625 | 6.31025 | 32845 ft | 425 kts | 110° |
| 2026-05-06 12:20 | 48.03845 | 6.39423 | 32830 ft | 423 kts | 111° |
| 2026-05-06 12:20 | 48.02063 | 6.47797 | 32859 ft | 422 kts | 111° |
| 2026-05-06 12:21 | 48.00282 | 6.56135 | 32854 ft | 421 kts | 111° |
| 2026-05-06 12:21 | 47.98500 | 6.64447 | 32859 ft | 420 kts | 111° |
| 2026-05-06 12:22 | 47.96563 | 6.72650 | 32866 ft | 419 kts | 115° |
| 2026-05-06 12:22 | 47.94366 | 6.80642 | 32824 ft | 418 kts | 117° |
| 2026-05-06 12:23 | 47.92152 | 6.88620 | 32848 ft | 416 kts | 117° |
| 2026-05-06 12:23 | 47.89961 | 6.96605 | 32859 ft | 416 kts | 117° |
| 2026-05-06 12:24 | 47.87778 | 7.04586 | 32859 ft | 416 kts | 117° |
| 2026-05-06 12:24 | 47.85588 | 7.12582 | 32851 ft | 416 kts | 117° |
| 2026-05-06 12:25 | 47.83397 | 7.20551 | 32826 ft | 416 kts | 118° |
| 2026-05-06 12:25 | 47.81204 | 7.28501 | 32850 ft | 415 kts | 118° |
| 2026-05-06 12:26 | 47.79010 | 7.36432 | 32852 ft | 414 kts | 118° |
| 2026-05-06 12:26 | 47.76816 | 7.44338 | 32852 ft | 414 kts | 118° |
| 2026-05-06 12:27 | 47.74615 | 7.52234 | 32852 ft | 413 kts | 119° |
| 2026-05-06 12:27 | 47.71758 | 7.59381 | 32862 ft | 401 kts | 134° |
| 2026-05-06 12:28 | 47.68953 | 7.64931 | 32860 ft | 401 kts | 134° |
| 2026-05-06 12:28 | 47.65067 | 7.72623 | 32860 ft | 401 kts | 134° |
| 2026-05-06 12:29 | 47.62296 | 7.78152 | 32846 ft | 402 kts | 134° |
| 2026-05-06 12:29 | 47.58964 | 7.84817 | 32869 ft | 402 kts | 134° |
| 2026-05-06 12:30 | 47.55633 | 7.91475 | 32866 ft | 402 kts | 134° |
| 2026-05-06 12:30 | 47.52284 | 7.98149 | 32852 ft | 405 kts | 134° |
| 2026-05-06 12:31 | 47.48922 | 8.04837 | 32848 ft | 404 kts | 134° |
| 2026-05-06 12:31 | 47.45562 | 8.11502 | 32835 ft | 404 kts | 134° |
| 2026-05-06 12:32 | 47.42210 | 8.18137 | 32863 ft | 402 kts | 134° |
| 2026-05-06 12:32 | 47.38853 | 8.24764 | 32846 ft | 403 kts | 134° |
| 2026-05-06 12:33 | 47.35497 | 8.31374 | 32836 ft | 402 kts | 134° |
| 2026-05-06 12:33 | 47.32150 | 8.37952 | 32858 ft | 401 kts | 135° |
| 2026-05-06 12:34 | 47.28782 | 8.44555 | 32869 ft | 403 kts | 135° |
| 2026-05-06 12:34 | 47.25374 | 8.51205 | 32854 ft | 410 kts | 136° |
| 2026-05-06 12:35 | 47.21962 | 8.57934 | 32848 ft | 414 kts | 134° |
| 2026-05-06 12:35 | 47.18606 | 8.64833 | 32859 ft | 416 kts | 134° |
| 2026-05-06 12:36 | 47.15328 | 8.71946 | 32738 ft | 445 kts | 106° |
| 2026-05-06 12:36 | 47.15633 | 8.76743 | 31241 ft | 499 kts | 89° |
| 2026-05-06 12:36 | 47.15200 | 8.81590 | 30794 ft | 467 kts | 126° |
| 2026-05-06 12:37 | 47.13263 | 8.85047 | 31092 ft | 429 kts | 150° |
| 2026-05-06 12:37 | 47.10833 | 8.87410 | 31340 ft | 414 kts | 156° |
| 2026-05-06 12:37 | 47.08404 | 8.89644 | 31571 ft | 411 kts | 153° |
| 2026-05-06 12:37 | 47.06140 | 8.92206 | 31794 ft | 411 kts | 147° |
| 2026-05-06 12:38 | 47.04075 | 8.95098 | 32051 ft | 410 kts | 142° |
| 2026-05-06 12:38 | 47.02181 | 8.98210 | 32276 ft | 409 kts | 139° |
| 2026-05-06 12:38 | 47.00404 | 9.01457 | 32498 ft | 405 kts | 137° |
| 2026-05-06 12:38 | 46.98709 | 9.04736 | 32630 ft | 403 kts | 136° |
| 2026-05-06 12:39 | 46.95397 | 9.11330 | 32782 ft | 401 kts | 136° |
| 2026-05-06 12:39 | 46.92098 | 9.17910 | 32845 ft | 401 kts | 136° |
| 2026-05-06 12:40 | 46.88768 | 9.24498 | 32812 ft | 404 kts | 136° |
| 2026-05-06 12:40 | 46.85422 | 9.31107 | 32815 ft | 405 kts | 136° |
| 2026-05-06 12:41 | 46.82057 | 9.37741 | 32812 ft | 408 kts | 136° |
| 2026-05-06 12:41 | 46.78694 | 9.44344 | 32787 ft | 407 kts | 136° |
| 2026-05-06 12:42 | 46.75305 | 9.50984 | 32791 ft | 410 kts | 136° |
| 2026-05-06 12:42 | 46.71897 | 9.57644 | 32818 ft | 409 kts | 136° |
| 2026-05-06 12:43 | 46.68481 | 9.64301 | 32808 ft | 411 kts | 137° |
| 2026-05-06 12:43 | 46.65060 | 9.70955 | 32760 ft | 406 kts | 137° |
| 2026-05-06 12:44 | 46.63385 | 9.74225 | 32865 ft | 400 kts | 137° |
| 2026-05-06 12:44 | 46.61713 | 9.77470 | 32837 ft | 402 kts | 137° |
| 2026-05-06 12:44 | 46.58359 | 9.83953 | 32851 ft | 400 kts | 137° |
| 2026-05-06 12:45 | 46.55005 | 9.90430 | 32836 ft | 402 kts | 137° |
| 2026-05-06 12:46 | 46.49995 | 10.00084 | 32852 ft | 400 kts | 138° |
| 2026-05-06 12:46 | 46.46744 | 10.06686 | 32853 ft | 408 kts | 132° |
| 2026-05-06 12:47 | 46.43910 | 10.13891 | 32871 ft | 412 kts | 130° |
| 2026-05-06 12:47 | 46.41133 | 10.21185 | 32829 ft | 412 kts | 130° |
| 2026-05-06 12:48 | 46.38332 | 10.28423 | 32899 ft | 411 kts | 130° |
| 2026-05-06 12:48 | 46.35516 | 10.35605 | 32861 ft | 411 kts | 131° |
| 2026-05-06 12:49 | 46.32679 | 10.42801 | 32871 ft | 411 kts | 131° |
| 2026-05-06 12:49 | 46.29837 | 10.49980 | 32799 ft | 409 kts | 131° |
| 2026-05-06 12:49 | 46.28436 | 10.53544 | 32904 ft | 406 kts | 131° |
| 2026-05-06 12:50 | 46.27027 | 10.57095 | 32873 ft | 407 kts | 131° |
| 2026-05-06 12:50 | 46.24194 | 10.64188 | 32885 ft | 408 kts | 131° |
| 2026-05-06 12:51 | 46.21356 | 10.71291 | 32893 ft | 409 kts | 131° |
| 2026-05-06 12:51 | 46.18515 | 10.78406 | 32877 ft | 406 kts | 131° |
| 2026-05-06 12:52 | 46.15692 | 10.85452 | 32856 ft | 405 kts | 131° |
| 2026-05-06 12:52 | 46.12859 | 10.92470 | 32858 ft | 406 kts | 131° |
| 2026-05-06 12:53 | 46.10025 | 10.99497 | 32894 ft | 413 kts | 131° |
| 2026-05-06 12:53 | 46.07079 | 11.06758 | 32893 ft | 425 kts | 130° |
| 2026-05-06 12:54 | 46.04054 | 11.14212 | 32878 ft | 437 kts | 130° |
| 2026-05-06 12:54 | 46.00947 | 11.21858 | 32886 ft | 447 kts | 129° |
| 2026-05-06 12:55 | 45.97769 | 11.29666 | 32889 ft | 456 kts | 129° |
| 2026-05-06 12:55 | 45.94549 | 11.37562 | 32900 ft | 459 kts | 129° |
| 2026-05-06 12:56 | 45.91310 | 11.45483 | 32904 ft | 460 kts | 129° |
| 2026-05-06 12:56 | 45.88049 | 11.53422 | 32907 ft | 462 kts | 129° |
| 2026-05-06 12:57 | 45.84765 | 11.61390 | 32907 ft | 464 kts | 129° |
| 2026-05-06 12:57 | 45.81474 | 11.69355 | 32894 ft | 464 kts | 129° |
| 2026-05-06 12:58 | 45.78200 | 11.77259 | 32906 ft | 464 kts | 129° |
| 2026-05-06 12:58 | 45.74900 | 11.85199 | 32866 ft | 463 kts | 129° |
| 2026-05-06 12:59 | 45.71598 | 11.93121 | 32911 ft | 462 kts | 129° |
| 2026-05-06 12:59 | 45.68295 | 12.01019 | 32922 ft | 462 kts | 129° |
| 2026-05-06 13:00 | 45.64983 | 12.08922 | 32922 ft | 463 kts | 129° |
| 2026-05-06 13:00 | 45.61666 | 12.16811 | 32926 ft | 463 kts | 129° |
| 2026-05-06 13:01 | 45.58373 | 12.24625 | 32922 ft | 458 kts | 129° |
| 2026-05-06 13:01 | 45.55117 | 12.32340 | 32923 ft | 452 kts | 129° |
| 2026-05-06 13:02 | 45.51848 | 12.40037 | 32940 ft | 455 kts | 129° |
| 2026-05-06 13:02 | 45.48542 | 12.47803 | 32946 ft | 462 kts | 129° |
| 2026-05-06 13:03 | 45.45233 | 12.55583 | 32905 ft | 455 kts | 128° |
| 2026-05-06 13:03 | 45.41934 | 12.63286 | 32921 ft | 455 kts | 129° |
| 2026-05-06 13:04 | 45.38630 | 12.70978 | 32901 ft | 454 kts | 128° |
| 2026-05-06 13:04 | 45.35387 | 12.78558 | 32902 ft | 449 kts | 128° |
| 2026-05-06 13:05 | 45.32141 | 12.86096 | 32865 ft | 445 kts | 128° |
| 2026-05-06 13:05 | 45.28921 | 12.93549 | 32914 ft | 441 kts | 128° |
| 2026-05-06 13:06 | 45.25682 | 13.00929 | 32912 ft | 437 kts | 131° |
| 2026-05-06 13:06 | 45.22110 | 13.07857 | 32921 ft | 433 kts | 135° |
| 2026-05-06 13:07 | 45.18433 | 13.14618 | 32889 ft | 432 kts | 135° |
| 2026-05-06 13:07 | 45.14800 | 13.21357 | 32899 ft | 429 kts | 134° |
| 2026-05-06 13:08 | 45.11215 | 13.28070 | 32907 ft | 426 kts | 134° |
| 2026-05-06 13:08 | 45.07664 | 13.34731 | 32920 ft | 423 kts | 134° |
| 2026-05-06 13:09 | 45.04111 | 13.41382 | 32934 ft | 427 kts | 134° |
| 2026-05-06 13:09 | 45.00502 | 13.48109 | 32939 ft | 437 kts | 134° |
| 2026-05-06 13:10 | 44.96780 | 13.55039 | 32937 ft | 446 kts | 134° |
| 2026-05-06 13:10 | 44.92984 | 13.62097 | 32941 ft | 455 kts | 133° |
| 2026-05-06 13:11 | 44.89138 | 13.69230 | 32955 ft | 463 kts | 133° |
| 2026-05-06 13:11 | 44.85201 | 13.76514 | 32952 ft | 471 kts | 133° |
| 2026-05-06 13:12 | 44.81205 | 13.83889 | 32948 ft | 476 kts | 133° |
| 2026-05-06 13:12 | 44.77170 | 13.91318 | 32961 ft | 479 kts | 133° |
| 2026-05-06 13:13 | 44.73101 | 13.98790 | 32938 ft | 482 kts | 133° |
| 2026-05-06 13:13 | 44.69009 | 14.06283 | 32963 ft | 483 kts | 133° |
| 2026-05-06 13:14 | 44.64904 | 14.13779 | 32944 ft | 484 kts | 133° |
| 2026-05-06 13:14 | 44.60793 | 14.21267 | 32945 ft | 485 kts | 133° |
| 2026-05-06 13:15 | 44.56667 | 14.28761 | 32952 ft | 485 kts | 133° |
| 2026-05-06 13:15 | 44.52560 | 14.36203 | 32966 ft | 485 kts | 133° |
| 2026-05-06 13:16 | 44.48425 | 14.43675 | 32944 ft | 485 kts | 133° |
| 2026-05-06 13:16 | 44.44291 | 14.51127 | 32950 ft | 484 kts | 133° |
| 2026-05-06 13:17 | 44.40147 | 14.58578 | 32972 ft | 485 kts | 133° |
| 2026-05-06 13:17 | 44.36004 | 14.66011 | 32973 ft | 485 kts | 133° |
| 2026-05-06 13:18 | 44.31859 | 14.73399 | 32970 ft | 485 kts | 134° |
| 2026-05-06 13:18 | 44.27654 | 14.80778 | 32980 ft | 485 kts | 134° |
| 2026-05-06 13:19 | 44.24152 | 14.86896 | 32972 ft | 485 kts | 134° |
| 2026-05-06 13:19 | 44.19944 | 14.94244 | 32970 ft | 485 kts | 134° |
| 2026-05-06 13:20 | 44.15719 | 15.01612 | 32945 ft | 486 kts | 134° |
| 2026-05-06 13:20 | 44.11487 | 15.08976 | 32971 ft | 488 kts | 134° |
| 2026-05-06 13:21 | 44.07235 | 15.16359 | 32972 ft | 489 kts | 134° |
| 2026-05-06 13:21 | 44.02979 | 15.23727 | 32976 ft | 489 kts | 134° |
| 2026-05-06 13:22 | 43.98709 | 15.31101 | 32956 ft | 490 kts | 134° |
| 2026-05-06 13:22 | 43.94429 | 15.38475 | 32973 ft | 491 kts | 134° |
| 2026-05-06 13:23 | 43.90125 | 15.45868 | 32973 ft | 492 kts | 134° |
| 2026-05-06 13:23 | 43.85843 | 15.53209 | 32985 ft | 492 kts | 134° |
| 2026-05-06 13:24 | 43.81533 | 15.60578 | 32982 ft | 492 kts | 134° |
| 2026-05-06 13:24 | 43.77218 | 15.67936 | 32976 ft | 492 kts | 134° |
| 2026-05-06 13:25 | 43.72898 | 15.75284 | 32982 ft | 492 kts | 134° |
| 2026-05-06 13:25 | 43.68599 | 15.82576 | 32983 ft | 492 kts | 134° |
| 2026-05-06 13:26 | 43.64269 | 15.89904 | 32989 ft | 492 kts | 134° |
| 2026-05-06 13:26 | 43.59933 | 15.97223 | 32999 ft | 492 kts | 134° |
| 2026-05-06 13:27 | 43.55594 | 16.04529 | 32988 ft | 491 kts | 134° |
| 2026-05-06 13:27 | 43.51258 | 16.11812 | 32999 ft | 491 kts | 134° |
| 2026-05-06 13:28 | 43.46950 | 16.19029 | 33014 ft | 491 kts | 134° |
| 2026-05-06 13:28 | 43.42597 | 16.26302 | 32994 ft | 493 kts | 134° |
| 2026-05-06 13:29 | 43.38211 | 16.33614 | 33022 ft | 492 kts | 134° |
| 2026-05-06 13:29 | 43.33872 | 16.40828 | 33014 ft | 493 kts | 133° |
| 2026-05-06 13:30 | 43.29493 | 16.48092 | 33000 ft | 495 kts | 134° |
| 2026-05-06 13:30 | 43.25091 | 16.55377 | 33009 ft | 495 kts | 134° |
| 2026-05-06 13:31 | 43.20700 | 16.62625 | 33008 ft | 494 kts | 134° |
| 2026-05-06 13:31 | 43.16298 | 16.69871 | 33021 ft | 495 kts | 133° |
| 2026-05-06 13:32 | 43.11887 | 16.77116 | 33022 ft | 496 kts | 133° |
| 2026-05-06 13:32 | 43.07462 | 16.84366 | 33027 ft | 496 kts | 133° |
| 2026-05-06 13:33 | 43.03057 | 16.91569 | 33006 ft | 483 kts | 133° |
| 2026-05-06 13:33 | 43.00936 | 16.95038 | 33007 ft | 467 kts | 133° |
| 2026-05-06 13:33 | 42.98873 | 16.98406 | 33012 ft | 460 kts | 134° |
| 2026-05-06 13:34 | 42.94773 | 17.05068 | 33031 ft | 458 kts | 133° |
| 2026-05-06 13:34 | 42.90689 | 17.11688 | 33033 ft | 459 kts | 134° |
| 2026-05-06 13:35 | 42.86572 | 17.18348 | 33036 ft | 460 kts | 134° |
| 2026-05-06 13:35 | 42.82438 | 17.25024 | 33040 ft | 461 kts | 134° |
| 2026-05-06 13:36 | 42.78300 | 17.31696 | 33045 ft | 462 kts | 134° |
| 2026-05-06 13:36 | 42.74141 | 17.38384 | 33041 ft | 463 kts | 134° |
| 2026-05-06 13:37 | 42.69975 | 17.45071 | 33041 ft | 463 kts | 134° |
| 2026-05-06 13:37 | 42.65809 | 17.51739 | 33036 ft | 463 kts | 134° |
| 2026-05-06 13:38 | 42.61634 | 17.58408 | 33037 ft | 462 kts | 134° |
| 2026-05-06 13:38 | 42.57464 | 17.65055 | 33049 ft | 462 kts | 134° |
| 2026-05-06 13:39 | 42.53317 | 17.71649 | 33053 ft | 462 kts | 134° |
| 2026-05-06 13:39 | 42.49151 | 17.78258 | 33048 ft | 461 kts | 134° |
| 2026-05-06 13:40 | 42.44980 | 17.84860 | 33061 ft | 461 kts | 134° |
| 2026-05-06 13:40 | 42.40804 | 17.91455 | 33064 ft | 461 kts | 134° |
| 2026-05-06 13:41 | 42.36633 | 17.98030 | 33059 ft | 460 kts | 134° |
| 2026-05-06 13:41 | 42.32460 | 18.04591 | 33070 ft | 460 kts | 134° |
| 2026-05-06 13:42 | 42.28284 | 18.11142 | 33066 ft | 460 kts | 135° |
| 2026-05-06 13:42 | 42.24136 | 18.17637 | 33075 ft | 459 kts | 135° |
| 2026-05-06 13:43 | 42.19954 | 18.24168 | 33074 ft | 459 kts | 135° |
| 2026-05-06 13:43 | 42.15769 | 18.30691 | 33069 ft | 459 kts | 135° |
| 2026-05-06 13:44 | 42.11590 | 18.37190 | 33053 ft | 459 kts | 135° |
| 2026-05-06 13:44 | 42.07401 | 18.43691 | 33058 ft | 459 kts | 135° |
| 2026-05-06 13:45 | 42.03213 | 18.50176 | 33069 ft | 459 kts | 135° |
| 2026-05-06 13:45 | 41.96955 | 18.59844 | 33074 ft | 459 kts | 135° |
| 2026-05-06 13:46 | 41.92759 | 18.66306 | 33069 ft | 459 kts | 135° |
| 2026-05-06 13:46 | 41.88659 | 18.72886 | 33076 ft | 460 kts | 133° |
| 2026-05-06 13:47 | 41.84636 | 18.79559 | 33063 ft | 460 kts | 132° |
| 2026-05-06 13:47 | 41.80606 | 18.86220 | 33079 ft | 460 kts | 133° |
| 2026-05-06 13:48 | 41.76558 | 18.92854 | 33078 ft | 460 kts | 133° |
| 2026-05-06 13:48 | 41.72493 | 18.99481 | 33075 ft | 460 kts | 133° |
| 2026-05-06 13:49 | 41.68426 | 19.06097 | 33088 ft | 461 kts | 133° |
| 2026-05-06 13:49 | 41.64345 | 19.12718 | 33073 ft | 461 kts | 133° |
| 2026-05-06 13:50 | 41.60260 | 19.19336 | 33089 ft | 462 kts | 133° |
| 2026-05-06 13:50 | 41.56168 | 19.25950 | 33083 ft | 462 kts | 133° |
| 2026-05-06 13:51 | 41.52100 | 19.32511 | 33082 ft | 462 kts | 133° |
| 2026-05-06 13:51 | 41.48001 | 19.39108 | 33088 ft | 462 kts | 133° |
| 2026-05-06 13:52 | 41.43897 | 19.45697 | 33085 ft | 462 kts | 133° |
| 2026-05-06 13:52 | 41.39789 | 19.52278 | 33096 ft | 462 kts | 132° |
| 2026-05-06 13:53 | 41.35669 | 19.58865 | 33082 ft | 463 kts | 132° |
| 2026-05-06 13:53 | 41.31540 | 19.65451 | 33089 ft | 463 kts | 132° |
| 2026-05-06 13:54 | 41.27406 | 19.72033 | 33086 ft | 463 kts | 132° |
| 2026-05-06 13:54 | 41.23267 | 19.78608 | 33080 ft | 464 kts | 132° |
| 2026-05-06 13:55 | 41.19145 | 19.85139 | 33087 ft | 464 kts | 132° |
| 2026-05-06 13:55 | 41.14996 | 19.91701 | 33083 ft | 464 kts | 132° |
| 2026-05-06 13:56 | 41.10842 | 19.98258 | 33090 ft | 464 kts | 132° |
| 2026-05-06 13:56 | 41.06679 | 20.04813 | 33088 ft | 465 kts | 132° |
| 2026-05-06 13:57 | 41.02504 | 20.11372 | 33090 ft | 466 kts | 132° |
| 2026-05-06 13:57 | 40.98323 | 20.17930 | 33090 ft | 466 kts | 132° |
| 2026-05-06 13:58 | 40.94133 | 20.24483 | 33104 ft | 467 kts | 132° |
| 2026-05-06 13:58 | 40.89946 | 20.31019 | 33073 ft | 468 kts | 132° |
| 2026-05-06 13:59 | 40.85736 | 20.37578 | 33088 ft | 468 kts | 132° |
| 2026-05-06 13:59 | 40.81519 | 20.44133 | 33091 ft | 468 kts | 132° |
| 2026-05-06 14:00 | 40.77295 | 20.50685 | 33084 ft | 469 kts | 132° |
| 2026-05-06 14:00 | 40.73085 | 20.57202 | 33068 ft | 469 kts | 132° |
| 2026-05-06 14:01 | 40.68845 | 20.63751 | 33084 ft | 470 kts | 133° |
| 2026-05-06 14:01 | 40.64602 | 20.70291 | 33080 ft | 470 kts | 133° |
| 2026-05-06 14:02 | 40.60352 | 20.76828 | 33069 ft | 470 kts | 133° |
| 2026-05-06 14:02 | 40.56110 | 20.83340 | 33065 ft | 467 kts | 133° |
| 2026-05-06 14:03 | 40.51879 | 20.89823 | 33058 ft | 466 kts | 133° |
| 2026-05-06 14:03 | 40.47688 | 20.96348 | 33065 ft | 469 kts | 128° |
| 2026-05-06 14:04 | 40.44173 | 21.03585 | 33048 ft | 471 kts | 122° |
| 2026-05-06 14:04 | 40.40796 | 21.10985 | 33061 ft | 473 kts | 122° |
| 2026-05-06 14:05 | 40.37963 | 21.17120 | 33053 ft | 474 kts | 123° |
| 2026-05-06 14:05 | 40.33947 | 21.25677 | 33050 ft | 474 kts | 123° |
| 2026-05-06 14:06 | 40.30462 | 21.33036 | 33041 ft | 475 kts | 123° |
| 2026-05-06 14:06 | 40.27562 | 21.39143 | 33044 ft | 475 kts | 123° |
| 2026-05-06 14:07 | 40.24076 | 21.46472 | 33033 ft | 474 kts | 123° |
| 2026-05-06 14:07 | 40.20582 | 21.53803 | 33022 ft | 474 kts | 123° |
| 2026-05-06 14:08 | 40.17089 | 21.61115 | 33027 ft | 474 kts | 123° |
| 2026-05-06 14:08 | 40.13586 | 21.68434 | 33020 ft | 474 kts | 123° |
| 2026-05-06 14:09 | 40.10078 | 21.75742 | 33030 ft | 474 kts | 123° |
| 2026-05-06 14:09 | 40.06593 | 21.82987 | 33023 ft | 474 kts | 123° |
| 2026-05-06 14:10 | 40.03088 | 21.90258 | 33025 ft | 474 kts | 123° |
| 2026-05-06 14:10 | 39.99572 | 21.97533 | 33024 ft | 474 kts | 123° |
| 2026-05-06 14:11 | 39.96051 | 22.04801 | 33018 ft | 474 kts | 123° |
| 2026-05-06 14:11 | 39.92528 | 22.12059 | 33018 ft | 474 kts | 123° |
| 2026-05-06 14:12 | 39.89000 | 22.19308 | 33018 ft | 474 kts | 123° |
| 2026-05-06 14:12 | 39.85467 | 22.26553 | 33032 ft | 474 kts | 123° |
| 2026-05-06 14:13 | 39.81934 | 22.33782 | 33033 ft | 473 kts | 123° |
| 2026-05-06 14:13 | 39.78399 | 22.40992 | 33028 ft | 473 kts | 124° |
| 2026-05-06 14:14 | 39.74856 | 22.48205 | 33020 ft | 474 kts | 123° |
| 2026-05-06 14:14 | 39.71325 | 22.55381 | 33019 ft | 474 kts | 123° |
| 2026-05-06 14:15 | 39.67768 | 22.62590 | 33031 ft | 474 kts | 123° |
| 2026-05-06 14:15 | 39.64206 | 22.69795 | 33030 ft | 474 kts | 123° |
| 2026-05-06 14:16 | 39.60632 | 22.77006 | 33045 ft | 475 kts | 123° |
| 2026-05-06 14:16 | 39.57078 | 22.84159 | 33035 ft | 475 kts | 123° |
| 2026-05-06 14:17 | 39.53491 | 22.91364 | 33039 ft | 475 kts | 123° |
| 2026-05-06 14:17 | 39.49902 | 22.98557 | 33051 ft | 475 kts | 123° |
| 2026-05-06 14:18 | 39.46306 | 23.05747 | 33047 ft | 476 kts | 123° |
| 2026-05-06 14:18 | 39.42703 | 23.12934 | 33061 ft | 476 kts | 123° |
| 2026-05-06 14:19 | 39.39095 | 23.20118 | 33044 ft | 477 kts | 123° |
| 2026-05-06 14:19 | 39.35474 | 23.27309 | 33047 ft | 477 kts | 123° |
| 2026-05-06 14:20 | 39.31850 | 23.34492 | 33050 ft | 477 kts | 123° |
| 2026-05-06 14:20 | 39.28224 | 23.41662 | 33051 ft | 477 kts | 123° |
| 2026-05-06 14:21 | 39.24611 | 23.48790 | 33051 ft | 478 kts | 123° |
| 2026-05-06 14:21 | 39.20967 | 23.55966 | 33056 ft | 478 kts | 123° |
| 2026-05-06 14:22 | 39.16880 | 23.62700 | 33058 ft | 477 kts | 137° |
| 2026-05-06 14:22 | 39.11651 | 23.67912 | 33062 ft | 475 kts | 146° |
| 2026-05-06 14:23 | 39.06268 | 23.72868 | 33045 ft | 476 kts | 146° |
| 2026-05-06 14:23 | 39.00860 | 23.77901 | 32362 ft | 492 kts | 146° |
| 2026-05-06 14:24 | 38.98055 | 23.80534 | 31728 ft | 502 kts | 145° |
| 2026-05-06 14:24 | 38.95242 | 23.83183 | 31024 ft | 501 kts | 145° |
| 2026-05-06 14:24 | 38.92433 | 23.85832 | 30377 ft | 500 kts | 145° |
| 2026-05-06 14:24 | 38.89644 | 23.88461 | 29864 ft | 494 kts | 144° |
| 2026-05-06 14:25 | 38.86883 | 23.91060 | 29291 ft | 490 kts | 144° |
| 2026-05-06 14:25 | 38.84154 | 23.93624 | 28786 ft | 484 kts | 144° |
| 2026-05-06 14:25 | 38.81452 | 23.96159 | 28343 ft | 477 kts | 144° |
| 2026-05-06 14:25 | 38.78804 | 23.98639 | 28094 ft | 467 kts | 144° |
| 2026-05-06 14:26 | 38.76198 | 24.01078 | 27819 ft | 461 kts | 144° |
| 2026-05-06 14:26 | 38.73622 | 24.03485 | 27506 ft | 465 kts | 144° |
| 2026-05-06 14:26 | 38.71016 | 24.05918 | 27047 ft | 461 kts | 144° |
| 2026-05-06 14:26 | 38.68433 | 24.08328 | 26578 ft | 458 kts | 144° |
| 2026-05-06 14:27 | 38.65872 | 24.10716 | 26096 ft | 455 kts | 144° |
| 2026-05-06 14:27 | 38.63315 | 24.13097 | 25603 ft | 452 kts | 144° |
| 2026-05-06 14:27 | 38.60779 | 24.15458 | 25139 ft | 449 kts | 144° |
| 2026-05-06 14:27 | 38.58256 | 24.17805 | 24644 ft | 448 kts | 144° |
| 2026-05-06 14:28 | 38.55746 | 24.20137 | 24173 ft | 446 kts | 144° |
| 2026-05-06 14:28 | 38.53235 | 24.22468 | 23668 ft | 445 kts | 143° |
| 2026-05-06 14:28 | 38.50729 | 24.24793 | 23122 ft | 443 kts | 143° |
| 2026-05-06 14:28 | 38.48248 | 24.27094 | 22626 ft | 440 kts | 144° |
| 2026-05-06 14:29 | 38.45779 | 24.29380 | 22139 ft | 437 kts | 144° |
| 2026-05-06 14:29 | 38.43320 | 24.31655 | 21663 ft | 433 kts | 144° |
| 2026-05-06 14:29 | 38.40843 | 24.33804 | 21200 ft | 430 kts | 148° |
| 2026-05-06 14:29 | 38.38297 | 24.35775 | 20729 ft | 426 kts | 150° |
| 2026-05-06 14:30 | 38.35746 | 24.37680 | 20272 ft | 423 kts | 150° |
| 2026-05-06 14:30 | 38.33212 | 24.39555 | 19825 ft | 420 kts | 150° |
| 2026-05-06 14:30 | 38.30689 | 24.41424 | 19369 ft | 418 kts | 150° |
| 2026-05-06 14:30 | 38.28187 | 24.43287 | 18919 ft | 415 kts | 150° |
| 2026-05-06 14:31 | 38.25704 | 24.45144 | 18448 ft | 413 kts | 150° |
| 2026-05-06 14:31 | 38.23238 | 24.46996 | 17945 ft | 410 kts | 150° |
| 2026-05-06 14:31 | 38.20789 | 24.48837 | 17462 ft | 407 kts | 150° |
| 2026-05-06 14:31 | 38.18363 | 24.50661 | 16997 ft | 403 kts | 150° |
| 2026-05-06 14:32 | 38.15963 | 24.52465 | 16545 ft | 400 kts | 149° |
| 2026-05-06 14:32 | 38.13574 | 24.54260 | 16108 ft | 396 kts | 149° |
| 2026-05-06 14:32 | 38.11243 | 24.56010 | 15660 ft | 393 kts | 149° |
| 2026-05-06 14:32 | 38.08896 | 24.57772 | 15234 ft | 389 kts | 149° |
| 2026-05-06 14:33 | 38.06571 | 24.59513 | 14783 ft | 386 kts | 149° |
| 2026-05-06 14:33 | 38.04261 | 24.61242 | 14372 ft | 384 kts | 149° |
| 2026-05-06 14:33 | 38.01968 | 24.62958 | 13943 ft | 381 kts | 149° |
| 2026-05-06 14:33 | 37.99695 | 24.64658 | 13470 ft | 379 kts | 149° |
| 2026-05-06 14:34 | 37.97433 | 24.66349 | 13005 ft | 375 kts | 149° |
| 2026-05-06 14:34 | 37.95187 | 24.68026 | 12563 ft | 372 kts | 149° |
| 2026-05-06 14:34 | 37.92966 | 24.69683 | 12138 ft | 369 kts | 149° |
| 2026-05-06 14:34 | 37.90766 | 24.71324 | 11716 ft | 366 kts | 149° |
| 2026-05-06 14:35 | 37.88580 | 24.72954 | 11301 ft | 363 kts | 149° |
| 2026-05-06 14:35 | 37.86408 | 24.74570 | 10912 ft | 359 kts | 149° |
| 2026-05-06 14:35 | 37.84290 | 24.76146 | 10773 ft | 348 kts | 149° |
| 2026-05-06 14:35 | 37.82230 | 24.77678 | 10611 ft | 338 kts | 149° |
| 2026-05-06 14:36 | 37.80228 | 24.79166 | 10476 ft | 329 kts | 149° |
| 2026-05-06 14:36 | 37.78280 | 24.80612 | 10342 ft | 320 kts | 149° |
| 2026-05-06 14:36 | 37.76385 | 24.82019 | 10206 ft | 312 kts | 149° |
| 2026-05-06 14:36 | 37.74539 | 24.83388 | 10077 ft | 303 kts | 149° |
| 2026-05-06 14:37 | 37.72751 | 24.84714 | 9961 ft | 295 kts | 149° |
| 2026-05-06 14:37 | 37.70961 | 24.86041 | 9540 ft | 298 kts | 149° |
| 2026-05-06 14:37 | 37.69178 | 24.87361 | 9230 ft | 297 kts | 149° |
| 2026-05-06 14:37 | 37.67416 | 24.88665 | 9095 ft | 289 kts | 149° |
| 2026-05-06 14:38 | 37.65720 | 24.89920 | 9063 ft | 277 kts | 149° |
| 2026-05-06 14:38 | 37.64109 | 24.91111 | 8962 ft | 269 kts | 149° |
| 2026-05-06 14:38 | 37.62461 | 24.92329 | 8409 ft | 279 kts | 150° |
| 2026-05-06 14:38 | 37.60770 | 24.93578 | 8028 ft | 282 kts | 150° |
| 2026-05-06 14:39 | 37.59083 | 24.94824 | 7758 ft | 280 kts | 150° |
| 2026-05-06 14:39 | 37.57404 | 24.96063 | 7495 ft | 279 kts | 150° |
| 2026-05-06 14:39 | 37.55734 | 24.97296 | 7230 ft | 278 kts | 150° |
| 2026-05-06 14:39 | 37.54070 | 24.98522 | 6951 ft | 277 kts | 150° |
| 2026-05-06 14:40 | 37.52416 | 24.99740 | 6691 ft | 275 kts | 150° |
| 2026-05-06 14:40 | 37.50764 | 25.00956 | 6441 ft | 274 kts | 150° |
| 2026-05-06 14:40 | 37.49319 | 25.02472 | 6171 ft | 271 kts | 123° |
| 2026-05-06 14:40 | 37.48634 | 25.04640 | 5842 ft | 269 kts | 94° |
| 2026-05-06 14:41 | 37.48775 | 25.06959 | 5523 ft | 265 kts | 71° |
| 2026-05-06 14:41 | 37.49434 | 25.09119 | 5227 ft | 264 kts | 65° |
| 2026-05-06 14:41 | 37.50145 | 25.11245 | 4870 ft | 263 kts | 65° |
| 2026-05-06 14:41 | 37.50839 | 25.13354 | 4544 ft | 258 kts | 66° |
| 2026-05-06 14:42 | 37.51504 | 25.15432 | 4216 ft | 252 kts | 69° |
| 2026-05-06 14:42 | 37.52016 | 25.17497 | 3939 ft | 247 kts | 72° |
| 2026-05-06 14:42 | 37.52486 | 25.19541 | 3638 ft | 237 kts | 73° |
| 2026-05-06 14:42 | 37.52938 | 25.21499 | 3332 ft | 229 kts | 72° |
| 2026-05-06 14:43 | 37.53187 | 25.23438 | 3025 ft | 224 kts | 95° |
| 2026-05-06 14:43 | 37.52910 | 25.25329 | 2768 ft | 216 kts | 102° |
| 2026-05-06 14:43 | 37.52516 | 25.27135 | 2484 ft | 211 kts | 114° |
| 2026-05-06 14:43 | 37.51763 | 25.28647 | 2243 ft | 197 kts | 134° |
| 2026-05-06 14:44 | 37.50768 | 25.29655 | 2024 ft | 178 kts | 150° |
| 2026-05-06 14:44 | 37.49769 | 25.30470 | 1765 ft | 164 kts | 149° |
| 2026-05-06 14:44 | 37.48844 | 25.31256 | 1521 ft | 158 kts | 149° |
| 2026-05-06 14:45 | 37.47028 | 25.32859 | 1100 ft | 161 kts | 146° |
| 2026-05-06 14:45 | 37.46112 | 25.33642 | 842 ft | 156 kts | 155° |
| 2026-05-06 14:45 | 37.45120 | 25.34113 | 569 ft | 150 kts | 162° |
| 2026-05-06 14:45 | 37.44159 | 25.34539 | 407 ft | 141 kts | 164° |
| 2026-05-06 14:46 | 37.43500 | 25.34828 | 408 ft | 58 kts | 161° |
| 2026-05-06 14:46 | 37.43169 | 25.34972 | 411 ft | 45 kts | 161° |
| 2026-05-06 14:46 | 37.42938 | 25.35077 | 412 ft | 29 kts | 160° |
| 2026-05-06 14:46 | 37.42829 | 25.35126 | 410 ft | 12 kts | 161° |
| 2026-05-06 14:47 | 37.42748 | 25.35134 | 409 ft | 12 kts | 182° |
| 2026-05-06 14:47 | 37.42760 | 25.35177 | 409 ft | 12 kts | 330° |
| 2026-05-06 14:47 | 37.42771 | 25.35169 | 407 ft | 12 kts | 329° |
| 2026-05-06 14:47 | 37.42786 | 25.35159 | 407 ft | 11 kts | 330° |
| 2026-05-06 14:48 | 37.42830 | 25.35128 | 410 ft | 11 kts | 334° |
| 2026-05-06 14:48 | 37.42865 | 25.35110 | 411 ft | 11 kts | 340° |
| 2026-05-06 14:48 | 37.42937 | 25.35079 | 412 ft | 11 kts | 342° |
| 2026-05-06 14:48 | 37.43006 | 25.35047 | 410 ft | 10 kts | 340° |
| 2026-05-06 14:49 | 37.43079 | 25.35015 | 407 ft | 12 kts | 341° |
| 2026-05-06 14:49 | 37.43162 | 25.34978 | 411 ft | 13 kts | 340° |
| 2026-05-06 14:49 | 37.43248 | 25.34940 | 411 ft | 13 kts | 341° |
| 2026-05-06 14:49 | 37.43331 | 25.34904 | 411 ft | 11 kts | 341° |
| 2026-05-06 14:50 | 37.43397 | 25.34852 | 410 ft | 12 kts | 294° |
| 2026-05-06 14:50 | 37.43417 | 25.34782 | 407 ft | 6 kts | 289° |
| 2026-05-06 14:50 | 37.43430 | 25.34752 | 403 ft | 1 kts | 310° |
| 2026-05-06 14:50 | 37.43438 | 25.34745 | 405 ft | 2 kts | 329° |
| 2026-05-06 14:51 | 37.43459 | 25.34732 | 406 ft | 4 kts | 339° |
| 2026-05-06 14:51 | 37.43478 | 25.34714 | 406 ft | 2 kts | 277° |
| 2026-05-06 14:51 | 37.43472 | 25.34688 | 406 ft | 4 kts | 251° |
| 2026-05-06 14:51 | 37.43464 | 25.34661 | 404 ft | 0 kts | 249° |